Terminal Aerodrome Forecast
Issued by NWS

Home | Current Version | Previous Version | Text Only | Print | Product List | Glossary On
Versions: 1 2 3 4 5 6 7 8 9 10 11 12 13 14 15 16 17 18 19
000
FTUS41 KCAR 252323
TAFFVE
TAF
KFVE 252323Z 2600/2624 25010KT P6SM BKN250
     FM260400 21005KT 3SM -SHRA BKN090
      TEMPO 2606/2609 2SM -SHRA OVC015
     FM260900 18005KT 3SM -SHRA OVC015
     FM261200 17004KT 3SM -SHRA OVC008
     FM261400 23009KT P6SM OVC008
      TEMPO 2616/2619 BKN015
     FM261900 25012KT P6SM BKN050=

USA.gov is the U.S. government's official web portal to all federal, state and local government web resources and services.